Time;durP1;ratioP1;P1;durP2;ratioP2;P2;SDS_P1;SDS_P2;PMS_P1;PMS_P2;Temp;Humidity;BMP_temperature;BMP_pressure;BME280_temperature;BME280_humidity;BME280_pressure;Samples;Min_cycle;Max_cycle;Signal;HPM_P1;HPM_P2
2021/12/31 00:02:37;;;;;;;0.50;0.40;;;20.30;49.90;;;;;;6220112;28;20460;-72
2021/12/31 00:05:38;;;;;;;0.43;0.30;;;20.30;49.80;;;;;;6216249;28;20035;-72
2021/12/31 00:08:38;;;;;;;0.40;0.22;;;20.30;49.90;;;;;;6213229;28;20026;-72
2021/12/31 00:11:39;;;;;;;0.63;0.40;;;20.30;49.90;;;;;;6202209;28;20032;-72
2021/12/31 00:14:39;;;;;;;0.30;0.30;;;20.30;49.90;;;;;;6219906;28;20026;-72
2021/12/31 00:17:40;;;;;;;0.77;0.30;;;20.30;49.90;;;;;;6219902;28;20393;-72
2021/12/31 00:20:41;;;;;;;0.43;0.38;;;20.30;49.90;;;;;;6209244;28;20469;-72
2021/12/31 00:23:43;;;;;;;0.40;0.28;;;20.30;49.90;;;;;;6216548;28;20060;-72
2021/12/31 00:26:44;;;;;;;0.43;0.30;;;20.30;50.60;;;;;;6219806;28;20025;-72
2021/12/31 00:29:44;;;;;;;0.43;0.30;;;20.30;49.90;;;;;;6219155;28;20535;-72
2021/12/31 00:32:45;;;;;;;0.50;0.30;;;20.30;49.90;;;;;;6198362;28;20080;-72
2021/12/31 00:35:46;;;;;;;0.28;0.28;;;20.30;49.90;;;;;;6204044;28;20104;-72
2021/12/31 00:38:47;;;;;;;0.45;0.40;;;20.30;49.90;;;;;;6219362;28;20030;-72
2021/12/31 00:41:47;;;;;;;0.20;0.20;;;20.30;49.90;;;;;;6185285;28;20026;-72
2021/12/31 00:44:48;;;;;;;0.28;0.20;;;20.30;49.80;;;;;;6194976;28;20363;-72
2021/12/31 00:47:49;;;;;;;0.10;0.10;;;20.30;49.80;;;;;;6219076;28;20381;-72
2021/12/31 00:50:49;;;;;;;0.30;0.30;;;20.30;49.80;;;;;;6218937;28;20025;-72
2021/12/31 00:53:50;;;;;;;0.32;0.20;;;20.30;49.90;;;;;;6208169;28;20381;-72
2021/12/31 00:56:50;;;;;;;0.60;0.40;;;20.30;49.90;;;;;;6209375;28;20076;-72
2021/12/31 00:59:51;;;;;;;0.45;0.22;;;20.30;49.90;;;;;;6219387;28;20522;-72
2021/12/31 01:02:52;;;;;;;0.20;0.20;;;20.30;49.90;;;;;;6218774;28;20084;-72
2021/12/31 01:05:52;;;;;;;0.32;0.30;;;20.30;49.90;;;;;;6208590;28;20064;-72
2021/12/31 01:08:53;;;;;;;0.32;0.30;;;20.30;49.90;;;;;;6194655;28;20376;-72
2021/12/31 01:11:55;;;;;;;0.35;0.20;;;20.30;49.90;;;;;;6204914;28;20022;-72
2021/12/31 01:15:01;;;;;;;0.63;0.20;;;20.30;49.90;;;;;;6218899;28;20040;-72
2021/12/31 01:18:17;;;;;;;0.20;0.20;;;20.30;49.90;;;;;;6218936;28;20064;-72
2021/12/31 01:21:21;;;;;;;0.30;0.20;;;20.30;49.90;;;;;;6218857;28;20022;-72
2021/12/31 01:24:28;;;;;;;0.22;0.22;;;20.30;49.90;;;;;;6218806;28;20061;-72
2021/12/31 01:27:29;;;;;;;0.10;0.10;;;20.30;49.90;;;;;;6218593;28;20030;-72
2021/12/31 01:30:30;;;;;;;0.10;0.10;;;20.30;49.90;;;;;;6212340;28;20140;-72
2021/12/31 01:33:31;;;;;;;0.20;0.20;;;20.30;49.90;;;;;;6194333;28;20031;-72
2021/12/31 01:36:32;;;;;;;0.20;0.20;;;20.30;49.90;;;;;;6209391;28;20109;-72
2021/12/31 01:39:33;;;;;;;0.43;0.25;;;20.30;50.00;;;;;;6219051;28;20026;-72
2021/12/31 01:42:36;;;;;;;0.30;0.30;;;20.30;49.90;;;;;;6218538;28;20053;-72
2021/12/31 01:45:43;;;;;;;0.20;0.20;;;20.30;49.90;;;;;;6217308;28;20109;-72
2021/12/31 01:51:56;;;;;;;0.10;0.10;;;20.30;50.00;;;;;;6217190;28;20045;-72
2021/12/31 01:54:57;;;;;;;0.30;0.30;;;20.30;49.90;;;;;;6218732;28;20037;-72
2021/12/31 01:58:00;;;;;;;0.30;0.30;;;20.30;50.00;;;;;;6218336;28;20036;-73
2021/12/31 02:01:04;;;;;;;0.20;0.20;;;20.30;49.90;;;;;;6218250;28;20412;-72
2021/12/31 02:04:05;;;;;;;0.52;0.20;;;20.30;49.90;;;;;;6218806;28;20026;-72
2021/12/31 02:07:06;;;;;;;0.30;0.20;;;20.30;50.00;;;;;;6202786;28;20033;-72
2021/12/31 02:10:08;;;;;;;0.30;0.20;;;20.30;49.90;;;;;;6196305;28;20371;-73
2021/12/31 02:13:09;;;;;;;0.20;0.20;;;20.30;50.00;;;;;;6217685;28;20552;-72
2021/12/31 02:16:10;;;;;;;0.32;0.30;;;20.30;50.40;;;;;;6222308;28;20034;-72
2021/12/31 02:19:13;;;;;;;0.32;0.30;;;20.30;49.90;;;;;;6222746;28;20104;-72
2021/12/31 02:22:13;;;;;;;0.20;0.20;;;20.30;49.90;;;;;;6208522;28;20088;-72
2021/12/31 02:25:14;;;;;;;0.30;0.30;;;20.30;49.90;;;;;;6222481;28;20022;-72
2021/12/31 02:28:15;;;;;;;0.20;0.13;;;20.30;49.90;;;;;;6222097;28;20068;-72
2021/12/31 02:31:16;;;;;;;0.10;0.10;;;20.30;50.00;;;;;;6207348;28;20038;-72
2021/12/31 02:34:16;;;;;;;0.20;0.20;;;20.30;49.90;;;;;;6197698;28;20268;-71
2021/12/31 02:37:17;;;;;;;0.28;0.20;;;20.30;49.90;;;;;;6215989;28;20477;-72
2021/12/31 02:40:19;;;;;;;0.40;0.25;;;20.30;49.90;;;;;;6222464;28;20040;-72
2021/12/31 02:43:20;;;;;;;0.20;0.20;;;20.30;49.90;;;;;;6222148;28;20061;-72
2021/12/31 02:46:20;;;;;;;0.35;0.20;;;20.30;49.90;;;;;;6222077;28;20476;-72
2021/12/31 02:49:24;;;;;;;0.10;0.10;;;20.30;49.90;;;;;;6222066;28;20492;-72
2021/12/31 02:52:24;;;;;;;0.15;0.15;;;20.30;49.90;;;;;;6221934;28;20212;-72
2021/12/31 02:55:26;;;;;;;0.10;0.10;;;20.30;49.90;;;;;;6201189;28;20049;-72
2021/12/31 02:58:27;;;;;;;0.20;0.20;;;20.30;49.90;;;;;;6221717;28;20072;-72
2021/12/31 03:01:27;;;;;;;0.40;0.20;;;20.30;49.90;;;;;;6221592;28;20073;-72
2021/12/31 03:04:29;;;;;;;0.20;0.20;;;20.30;49.90;;;;;;6211579;28;20038;-72
2021/12/31 03:07:31;;;;;;;0.20;0.20;;;20.30;50.00;;;;;;6216348;28;20519;-72
2021/12/31 03:10:33;;;;;;;0.35;0.30;;;20.30;49.90;;;;;;6221759;28;20431;-72
2021/12/31 03:13:36;;;;;;;0.25;0.20;;;20.30;49.90;;;;;;6221572;28;20413;-72
2021/12/31 03:16:36;;;;;;;0.32;0.20;;;20.30;49.90;;;;;;6218757;28;20018;-72
2021/12/31 03:19:37;;;;;;;0.20;0.20;;;20.30;49.90;;;;;;6203670;28;20034;-72
2021/12/31 03:22:40;;;;;;;0.30;0.30;;;20.30;49.90;;;;;;6220179;28;20128;-72
2021/12/31 03:25:40;;;;;;;0.40;0.30;;;20.30;49.90;;;;;;6221000;28;20370;-72
2021/12/31 03:28:41;;;;;;;0.30;0.30;;;20.30;49.90;;;;;;6221217;28;20076;-72
2021/12/31 03:31:41;;;;;;;0.20;0.20;;;20.30;49.90;;;;;;6202974;28;20034;-72
2021/12/31 03:34:42;;;;;;;0.52;0.20;;;20.30;49.90;;;;;;6196806;28;20030;-72
2021/12/31 03:37:42;;;;;;;0.20;0.20;;;20.30;49.90;;;;;;6215892;28;20033;-72
2021/12/31 03:40:46;;;;;;;0.15;0.15;;;20.30;50.00;;;;;;6216814;28;20069;-72
2021/12/31 03:43:46;;;;;;;0.20;0.20;;;20.30;49.90;;;;;;6203421;28;20033;-73
2021/12/31 03:46:47;;;;;;;0.30;0.20;;;20.30;49.90;;;;;;6219240;28;20034;-72
2021/12/31 03:49:47;;;;;;;0.22;0.10;;;20.30;49.90;;;;;;6220647;28;20482;-72
2021/12/31 03:52:48;;;;;;;0.25;0.20;;;20.30;49.90;;;;;;6220333;28;20976;-72
2021/12/31 03:55:48;;;;;;;0.13;0.13;;;20.20;49.80;;;;;;6220699;28;20030;-72
2021/12/31 03:58:49;;;;;;;0.30;0.30;;;20.20;49.80;;;;;;6220632;28;20029;-72
2021/12/31 04:01:49;;;;;;;0.10;0.10;;;20.20;49.80;;;;;;6220068;28;20513;-72
2021/12/31 04:04:50;;;;;;;0.20;0.20;;;20.20;49.80;;;;;;6220797;28;20033;-72
2021/12/31 04:07:51;;;;;;;0.40;0.20;;;20.30;50.60;;;;;;6198338;28;20045;-72
2021/12/31 04:10:52;;;;;;;0.10;0.10;;;20.20;49.80;;;;;;6198465;28;20029;-72
2021/12/31 04:13:52;;;;;;;0.20;0.20;;;20.20;49.80;;;;;;6220193;28;20061;-72
2021/12/31 04:16:53;;;;;;;0.35;0.30;;;20.20;49.80;;;;;;6219821;28;20100;-72
2021/12/31 04:19:56;;;;;;;0.22;0.15;;;20.30;49.90;;;;;;6215340;28;20085;-72
2021/12/31 04:22:58;;;;;;;0.20;0.20;;;20.20;49.80;;;;;;6213777;28;20045;-72
2021/12/31 04:25:59;;;;;;;0.20;0.20;;;20.20;49.90;;;;;;6216805;28;20056;-72
2021/12/31 04:29:00;;;;;;;0.40;0.20;;;20.30;50.00;;;;;;6219537;28;20068;-72
2021/12/31 04:32:00;;;;;;;0.15;0.13;;;20.30;49.90;;;;;;6200700;28;20030;-72
2021/12/31 04:35:01;;;;;;;0.20;0.20;;;20.20;49.80;;;;;;6198583;28;20084;-72
2021/12/31 04:38:02;;;;;;;0.10;0.10;;;20.20;49.90;;;;;;6219454;28;20696;-72
2021/12/31 04:41:03;;;;;;;0.30;0.20;;;20.20;49.80;;;;;;6219509;28;20018;-72
2021/12/31 04:44:03;;;;;;;0.10;0.10;;;20.20;49.80;;;;;;6219339;28;20025;-73
2021/12/31 04:47:04;;;;;;;0.15;0.15;;;20.20;49.80;;;;;;6219306;28;20032;-72
2021/12/31 04:50:06;;;;;;;0.30;0.20;;;20.20;49.90;;;;;;6219001;28;20207;-72
2021/12/31 04:53:07;;;;;;;0.10;0.10;;;20.20;49.90;;;;;;6216658;28;20030;-72
2021/12/31 04:56:07;;;;;;;0.20;0.20;;;20.20;49.90;;;;;;6203804;28;20029;-72
2021/12/31 04:59:09;;;;;;;0.17;0.10;;;20.20;49.90;;;;;;6219597;28;20490;-72
2021/12/31 05:02:09;;;;;;;0.30;0.20;;;20.20;49.90;;;;;;6218986;28;20054;-72
2021/12/31 05:05:11;;;;;;;0.20;0.20;;;20.20;49.90;;;;;;6219506;28;20037;-73
2021/12/31 05:08:12;;;;;;;0.15;0.15;;;20.20;49.90;;;;;;6195036;28;20073;-72
2021/12/31 05:11:12;;;;;;;0.30;0.20;;;20.20;49.90;;;;;;6202237;28;20038;-73
2021/12/31 05:14:13;;;;;;;0.40;0.10;;;20.20;49.90;;;;;;6219096;28;20042;-72
2021/12/31 05:17:14;;;;;;;0.35;0.28;;;20.20;49.90;;;;;;6195598;28;20030;-72
2021/12/31 05:20:14;;;;;;;0.43;0.30;;;20.20;49.90;;;;;;6219377;28;20036;-72
2021/12/31 05:23:15;;;;;;;0.28;0.28;;;20.20;49.90;;;;;;6201114;28;20026;-73
2021/12/31 05:26:15;;;;;;;0.55;0.20;;;20.20;49.90;;;;;;6218997;28;20048;-72
2021/12/31 05:29:16;;;;;;;0.10;0.10;;;20.20;49.90;;;;;;6216083;28;20045;-72
2021/12/31 05:32:17;;;;;;;0.30;0.20;;;20.20;49.90;;;;;;6201253;28;20612;-73
2021/12/31 05:35:18;;;;;;;0.38;0.20;;;20.20;49.90;;;;;;6199441;28;20041;-73
2021/12/31 05:38:18;;;;;;;0.20;0.20;;;20.20;49.90;;;;;;6218959;28;20030;-72
2021/12/31 05:41:19;;;;;;;0.32;0.20;;;20.20;49.90;;;;;;6218623;28;20022;-72
2021/12/31 05:44:19;;;;;;;0.63;0.28;;;20.20;49.90;;;;;;6219903;28;20038;-72
2021/12/31 05:47:20;;;;;;;0.10;0.10;;;20.20;49.90;;;;;;6204166;28;20036;-73
2021/12/31 05:50:29;;;;;;;0.20;0.20;;;20.20;49.90;;;;;;6223735;28;20041;-72
2021/12/31 05:53:30;;;;;;;0.30;0.20;;;20.20;49.90;;;;;;6223381;28;20064;-72
2021/12/31 05:56:31;;;;;;;0.20;0.20;;;20.20;49.90;;;;;;6223133;28;20029;-72
2021/12/31 05:59:31;;;;;;;0.10;0.10;;;20.20;49.90;;;;;;6205592;28;20026;-72
2021/12/31 06:02:32;;;;;;;0.20;0.20;;;20.20;49.90;;;;;;6194398;28;20081;-72
2021/12/31 06:05:32;;;;;;;0.40;0.30;;;20.20;49.90;;;;;;6180221;28;20025;-72
2021/12/31 06:08:33;;;;;;;0.30;0.30;;;20.30;50.00;;;;;;6211031;28;20026;-72
2021/12/31 06:11:34;;;;;;;0.17;0.17;;;20.30;50.00;;;;;;6186748;28;20061;-72
2021/12/31 06:14:34;;;;;;;0.20;0.20;;;20.30;50.00;;;;;;6222921;28;20029;-72
2021/12/31 06:17:36;;;;;;;0.20;0.20;;;20.30;50.00;;;;;;6219255;28;20034;-72
2021/12/31 06:20:37;;;;;;;0.43;0.28;;;20.30;50.00;;;;;;6212321;28;20039;-72
2021/12/31 06:23:38;;;;;;;0.22;0.20;;;20.30;50.00;;;;;;6219708;28;20066;-73
2021/12/31 06:26:38;;;;;;;0.15;0.15;;;20.30;50.00;;;;;;6222603;28;20026;-72
2021/12/31 06:29:39;;;;;;;0.30;0.20;;;20.30;50.00;;;;;;6222255;28;20068;-72
2021/12/31 06:32:39;;;;;;;0.28;0.22;;;20.30;50.00;;;;;;6202323;28;20085;-72
2021/12/31 06:35:41;;;;;;;0.20;0.20;;;20.30;50.00;;;;;;6205897;28;20038;-72
2021/12/31 06:38:42;;;;;;;0.40;0.28;;;20.30;50.00;;;;;;6219427;28;20038;-72
2021/12/31 06:41:43;;;;;;;0.20;0.20;;;20.30;50.00;;;;;;6222453;28;20342;-72
2021/12/31 06:44:43;;;;;;;0.95;0.10;;;20.30;50.00;;;;;;6216348;28;20440;-72
2021/12/31 06:47:44;;;;;;;0.20;0.20;;;20.30;50.00;;;;;;6222065;28;20049;-71
2021/12/31 06:50:44;;;;;;;0.25;0.20;;;20.30;50.00;;;;;;6204485;28;20026;-72
2021/12/31 06:53:45;;;;;;;0.20;0.20;;;20.30;50.00;;;;;;6214938;28;20424;-72
2021/12/31 06:56:45;;;;;;;0.15;0.10;;;20.30;50.00;;;;;;6211345;28;20022;-73
2021/12/31 06:59:46;;;;;;;0.40;0.30;;;20.30;50.00;;;;;;6209914;28;20093;-72
2021/12/31 07:02:46;;;;;;;0.32;0.20;;;20.30;50.00;;;;;;6188025;28;20070;-73
2021/12/31 07:05:47;;;;;;;0.20;0.20;;;20.30;49.90;;;;;;6204354;28;20062;-73
2021/12/31 07:08:47;;;;;;;0.35;0.20;;;20.30;49.90;;;;;;6212299;28;20456;-72
2021/12/31 07:11:48;;;;;;;0.20;0.20;;;20.30;50.00;;;;;;6210516;28;20997;-72
2021/12/31 07:14:48;;;;;;;0.25;0.25;;;20.30;50.00;;;;;;6220215;28;20444;-72
2021/12/31 07:17:49;;;;;;;0.20;0.20;;;20.30;50.00;;;;;;6223519;28;20037;-72
2021/12/31 07:20:50;;;;;;;0.20;0.20;;;20.30;50.00;;;;;;6206062;28;20061;-72
2021/12/31 07:23:50;;;;;;;0.10;0.10;;;20.30;50.00;;;;;;6223605;28;20096;-72
2021/12/31 07:26:51;;;;;;;0.13;0.10;;;20.30;50.00;;;;;;6223428;28;20152;-73
2021/12/31 07:29:51;;;;;;;0.20;0.20;;;20.30;50.00;;;;;;6222896;28;20113;-73
2021/12/31 07:32:52;;;;;;;0.28;0.20;;;20.30;50.00;;;;;;6200935;28;20026;-72
2021/12/31 07:35:53;;;;;;;0.52;0.20;;;20.30;50.00;;;;;;6180996;28;20124;-72
2021/12/31 07:39:06;;;;;;;0.45;0.30;;;20.30;50.00;;;;;;6196948;28;20045;-72
2021/12/31 07:42:06;;;;;;;1.02;0.20;;;20.30;50.00;;;;;;6212599;28;20445;-72
2021/12/31 07:45:07;;;;;;;0.17;0.17;;;20.30;50.00;;;;;;6199179;28;20030;-72
2021/12/31 07:48:08;;;;;;;0.47;0.20;;;20.30;50.00;;;;;;6221483;28;20036;-72
2021/12/31 07:51:08;;;;;;;0.20;0.20;;;20.30;49.90;;;;;;6221392;28;20480;-72
2021/12/31 07:54:10;;;;;;;0.65;0.20;;;20.30;50.00;;;;;;6205904;28;20096;-73
2021/12/31 07:57:10;;;;;;;0.20;0.20;;;20.30;50.00;;;;;;6211310;28;20025;-72
2021/12/31 08:00:11;;;;;;;0.20;0.20;;;20.30;49.90;;;;;;6197573;28;20088;-72
2021/12/31 08:03:12;;;;;;;0.47;0.30;;;20.30;50.00;;;;;;6213315;28;20113;-73
2021/12/31 08:06:13;;;;;;;0.95;0.20;;;20.30;49.90;;;;;;6196426;28;20031;-72
2021/12/31 08:09:13;;;;;;;0.20;0.20;;;20.30;50.00;;;;;;6208321;28;20034;-72
2021/12/31 08:12:13;;;;;;;2.13;0.40;;;20.30;50.00;;;;;;6209281;28;20022;-72
2021/12/31 08:15:15;;;;;;;0.20;0.20;;;20.30;49.90;;;;;;6196602;28;20084;-72
2021/12/31 08:18:15;;;;;;;0.38;0.30;;;20.30;49.90;;;;;;6211883;28;20362;-72
2021/12/31 08:21:16;;;;;;;0.20;0.20;;;20.30;50.00;;;;;;6218464;28;20101;-72
2021/12/31 08:24:16;;;;;;;0.32;0.30;;;20.30;50.00;;;;;;6210081;28;20026;-73
2021/12/31 08:27:18;;;;;;;0.30;0.30;;;20.30;50.00;;;;;;6207762;28;20153;-72
2021/12/31 08:30:18;;;;;;;0.43;0.30;;;20.30;50.00;;;;;;6217849;28;20065;-72
2021/12/31 08:33:19;;;;;;;3.22;0.30;;;20.30;50.00;;;;;;6200692;28;20052;-73
2021/12/31 08:36:19;;;;;;;0.47;0.30;;;20.30;50.10;;;;;;6213415;28;20029;-73
2021/12/31 08:39:20;;;;;;;0.40;0.30;;;20.30;50.10;;;;;;6209998;28;20064;-72
2021/12/31 08:42:20;;;;;;;0.38;0.20;;;20.30;50.00;;;;;;6210216;28;20042;-73
2021/12/31 08:45:21;;;;;;;1.00;0.20;;;20.30;50.20;;;;;;6201112;28;20038;-72
2021/12/31 08:48:22;;;;;;;2.90;0.30;;;20.40;50.30;;;;;;6208101;28;20059;-72
2021/12/31 08:51:23;;;;;;;0.98;0.30;;;20.40;50.20;;;;;;6208707;28;20543;-72
2021/12/31 08:54:23;;;;;;;0.10;0.10;;;20.40;50.20;;;;;;6217914;28;20051;-72
2021/12/31 08:57:24;;;;;;;1.85;0.45;;;20.40;50.20;;;;;;6220398;28;20033;-72
2021/12/31 09:00:24;;;;;;;0.75;0.30;;;20.40;50.20;;;;;;6204094;28;20027;-72
2021/12/31 09:03:25;;;;;;;0.32;0.30;;;20.40;50.20;;;;;;6220488;28;20046;-72
2021/12/31 09:06:25;;;;;;;0.63;0.20;;;20.40;50.20;;;;;;6212746;28;20033;-73
2021/12/31 09:09:26;;;;;;;1.38;0.28;;;20.40;50.20;;;;;;6220916;28;20469;-72
2021/12/31 09:12:27;;;;;;;2.50;0.20;;;20.40;50.20;;;;;;6218522;28;20025;-73
2021/12/31 09:15:27;;;;;;;1.38;0.20;;;20.40;50.20;;;;;;6213243;28;20508;-72
2021/12/31 09:18:28;;;;;;;0.43;0.30;;;20.40;50.20;;;;;;6219869;28;20481;-72
2021/12/31 09:21:28;;;;;;;0.40;0.30;;;20.40;50.20;;;;;;6213857;28;20493;-72
2021/12/31 09:24:29;;;;;;;0.30;0.30;;;20.40;50.20;;;;;;6210865;28;20457;-73
2021/12/31 09:27:29;;;;;;;0.68;0.30;;;20.40;50.20;;;;;;6213463;28;20038;-73
2021/12/31 09:30:30;;;;;;;0.52;0.30;;;20.40;50.20;;;;;;6213738;28;20026;-72
2021/12/31 09:33:30;;;;;;;0.50;0.30;;;20.40;50.20;;;;;;6203778;28;20396;-72
2021/12/31 09:36:31;;;;;;;0.55;0.20;;;20.40;50.20;;;;;;6211342;28;20109;-72
2021/12/31 09:39:31;;;;;;;0.20;0.20;;;20.40;50.20;;;;;;6204412;28;20076;-72
2021/12/31 09:42:32;;;;;;;0.50;0.38;;;20.40;50.20;;;;;;6218353;28;20506;-72
2021/12/31 09:45:34;;;;;;;0.82;0.40;;;20.40;50.30;;;;;;6223227;28;20084;-72
2021/12/31 09:48:35;;;;;;;0.63;0.30;;;20.40;50.20;;;;;;6221589;28;20069;-72
2021/12/31 09:51:39;;;;;;;0.73;0.30;;;20.40;50.30;;;;;;6224828;28;20112;-72
2021/12/31 09:54:44;;;;;;;0.55;0.30;;;20.30;50.20;;;;;;6203846;28;20136;-72
2021/12/31 09:57:45;;;;;;;0.15;0.15;;;20.40;50.30;;;;;;6217892;28;20065;-74
2021/12/31 10:00:48;;;;;;;0.35;0.28;;;20.40;50.30;;;;;;6221280;28;20380;-73
2021/12/31 10:04:00;;;;;;;0.40;0.20;;;20.40;50.30;;;;;;6216750;28;20140;-72
2021/12/31 10:07:08;;;;;;;0.30;0.17;;;20.40;50.30;;;;;;6185990;28;20030;-72
2021/12/31 10:10:14;;;;;;;0.40;0.30;;;20.40;50.30;;;;;;6211827;28;20026;-73
2021/12/31 10:13:16;;;;;;;0.15;0.15;;;20.40;50.30;;;;;;6221201;28;20022;-73
2021/12/31 10:16:30;;;;;;;0.55;0.30;;;20.40;50.40;;;;;;6223910;28;20114;-72
2021/12/31 10:19:30;;;;;;;0.50;0.30;;;20.40;50.30;;;;;;6223555;28;20022;-73
2021/12/31 10:22:31;;;;;;;0.32;0.22;;;20.40;50.30;;;;;;6207592;28;20033;-72
2021/12/31 10:25:35;;;;;;;0.45;0.38;;;20.40;50.30;;;;;;6200134;28;20102;-72
2021/12/31 10:28:35;;;;;;;0.30;0.20;;;20.50;50.20;;;;;;6203749;28;20026;-72
2021/12/31 10:31:44;;;;;;;0.40;0.30;;;20.50;50.20;;;;;;6205261;28;20707;-72
2021/12/31 10:34:44;;;;;;;1.15;0.30;;;20.50;50.30;;;;;;6201220;28;20037;-73
2021/12/31 10:37:58;;;;;;;0.20;0.10;;;20.50;50.50;;;;;;6198470;28;20038;-73
2021/12/31 10:41:00;;;;;;;0.45;0.25;;;20.50;50.30;;;;;;6206325;28;20088;-72
2021/12/31 10:44:01;;;;;;;0.40;0.30;;;20.60;50.40;;;;;;6198481;28;20027;-72
2021/12/31 10:47:19;;;;;;;0.30;0.20;;;20.60;50.30;;;;;;6214044;28;20492;-73
2021/12/31 10:50:20;;;;;;;3.50;0.30;;;20.60;50.40;;;;;;6206762;28;20029;-73
2021/12/31 10:53:33;;;;;;;0.75;0.30;;;20.60;50.30;;;;;;6211491;28;20451;-73
2021/12/31 10:56:40;;;;;;;0.82;0.40;;;20.60;50.40;;;;;;6211116;28;20053;-73
2021/12/31 10:59:41;;;;;;;0.73;0.38;;;20.60;50.30;;;;;;6214826;28;20057;-73
2021/12/31 11:02:42;;;;;;;2.05;0.50;;;20.60;50.20;;;;;;6219602;28;20054;-73
2021/12/31 11:05:43;;;;;;;1.20;0.45;;;20.60;50.20;;;;;;6213265;28;20476;-72
2021/12/31 11:08:45;;;;;;;3.17;0.40;;;20.50;50.20;;;;;;6222745;28;20079;-73
2021/12/31 11:11:47;;;;;;;1.23;0.40;;;20.50;50.30;;;;;;6211499;28;20109;-72
2021/12/31 11:14:49;;;;;;;0.95;0.35;;;20.50;50.30;;;;;;6217805;28;20081;-73
2021/12/31 11:17:53;;;;;;;1.83;0.40;;;20.50;50.30;;;;;;6218137;28;20045;-73
2021/12/31 11:20:58;;;;;;;1.15;0.40;;;20.50;50.30;;;;;;6213801;28;20025;-73
2021/12/31 11:24:30;;;;;;;2.35;0.30;;;20.50;50.30;;;;;;6219806;28;20504;-73
2021/12/31 11:27:35;;;;;;;0.80;0.30;;;20.50;50.40;;;;;;6212104;28;20599;-73
2021/12/31 11:30:40;;;;;;;2.05;0.73;;;20.50;50.40;;;;;;6217197;28;20045;-73
2021/12/31 11:33:41;;;;;;;0.57;0.33;;;20.50;50.40;;;;;;6207955;28;20087;-73
2021/12/31 11:36:54;;;;;;;1.55;0.52;;;20.50;50.30;;;;;;6220608;28;20281;-73
2021/12/31 11:40:33;;;;;;;0.70;0.47;;;20.50;50.30;;;;;;6221426;28;20105;-73
2021/12/31 11:43:35;;;;;;;0.70;0.30;;;20.50;50.30;;;;;;6212576;28;20453;-73
2021/12/31 11:46:48;;;;;;;1.40;0.70;;;20.50;50.30;;;;;;6211683;28;20026;-73
2021/12/31 11:49:49;;;;;;;0.82;0.30;;;20.50;50.40;;;;;;6200883;28;20144;-73
2021/12/31 11:53:01;;;;;;;4.57;0.40;;;20.50;50.40;;;;;;6221737;28;20023;-73
2021/12/31 11:56:02;;;;;;;0.57;0.28;;;20.50;50.40;;;;;;6205602;28;20034;-73
2021/12/31 11:59:16;;;;;;;0.40;0.38;;;20.50;50.40;;;;;;6220535;28;20018;-74
2021/12/31 12:02:21;;;;;;;1.40;0.40;;;20.50;50.40;;;;;;6204095;28;20128;-73
2021/12/31 12:05:39;;;;;;;1.15;0.30;;;20.50;50.40;;;;;;6192028;28;20050;-73
2021/12/31 12:08:50;;;;;;;2.00;0.40;;;20.50;50.40;;;;;;6204681;28;20105;-73
2021/12/31 12:12:04;;;;;;;1.80;0.50;;;20.40;50.40;;;;;;6186604;28;20053;-72
2021/12/31 12:15:14;;;;;;;0.90;0.60;;;20.50;50.40;;;;;;6208444;28;20045;-72
2021/12/31 12:18:34;;;;;;;1.20;0.50;;;20.50;50.40;;;;;;6213625;28;20113;-72
2021/12/31 12:21:36;;;;;;;0.93;0.45;;;20.40;50.30;;;;;;6202318;28;20072;-73
2021/12/31 12:24:38;;;;;;;0.60;0.40;;;20.50;50.40;;;;;;6212802;28;20065;-72
2021/12/31 12:27:39;;;;;;;0.55;0.43;;;20.50;50.40;;;;;;6220851;28;20395;-73
2021/12/31 12:30:48;;;;;;;3.38;0.40;;;20.50;50.40;;;;;;6204395;28;20023;-73
2021/12/31 12:33:57;;;;;;;1.00;0.50;;;20.50;50.40;;;;;;6214393;28;20038;-72
2021/12/31 12:36:58;;;;;;;0.85;0.40;;;20.50;50.40;;;;;;6214789;28;20134;-72
2021/12/31 12:40:00;;;;;;;0.80;0.43;;;20.40;50.40;;;;;;6215329;28;20026;-73
2021/12/31 12:43:00;;;;;;;0.45;0.30;;;20.40;50.40;;;;;;6220114;28;20041;-73
2021/12/31 12:46:13;;;;;;;0.88;0.50;;;20.40;50.40;;;;;;6220973;28;20030;-73
2021/12/31 12:49:14;;;;;;;1.05;0.60;;;20.40;50.40;;;;;;6213248;28;20258;-72
2021/12/31 12:52:14;;;;;;;0.40;0.30;;;20.40;50.40;;;;;;6213773;28;20488;-73
2021/12/31 12:55:17;;;;;;;0.50;0.40;;;20.50;50.50;;;;;;6201705;28;20042;-73
2021/12/31 12:58:23;;;;;;;0.70;0.63;;;20.40;50.40;;;;;;6215897;28;20031;-73
2021/12/31 13:01:34;;;;;;;0.80;0.30;;;20.40;50.40;;;;;;6194510;28;20137;-72
2021/12/31 13:04:35;;;;;;;0.30;0.30;;;20.50;50.50;;;;;;6194126;28;20030;-72
2021/12/31 13:07:35;;;;;;;2.30;0.32;;;20.40;50.40;;;;;;6202436;28;20031;-73
2021/12/31 13:10:36;;;;;;;0.98;0.30;;;20.40;50.50;;;;;;6192307;28;20048;-73
2021/12/31 13:13:38;;;;;;;0.30;0.30;;;20.40;50.50;;;;;;6201572;28;20046;-73
2021/12/31 13:16:39;;;;;;;0.85;0.50;;;20.40;50.50;;;;;;6213650;28;20038;-73
2021/12/31 13:19:44;;;;;;;0.90;0.50;;;20.40;50.50;;;;;;6207952;28;20037;-73
2021/12/31 13:22:45;;;;;;;1.25;0.50;;;20.40;50.50;;;;;;6213074;28;20104;-72
2021/12/31 13:25:48;;;;;;;1.30;0.60;;;20.40;50.50;;;;;;6197432;28;20034;-73
2021/12/31 13:28:49;;;;;;;1.52;0.98;;;20.50;50.60;;;;;;6214629;28;20034;-73
2021/12/31 13:31:50;;;;;;;2.42;0.90;;;20.50;50.60;;;;;;6205247;28;20034;-73
2021/12/31 13:34:52;;;;;;;2.90;1.08;;;20.50;50.40;;;;;;6216115;28;20099;-72
2021/12/31 13:38:00;;;;;;;1.48;0.80;;;20.50;50.40;;;;;;6219433;28;20393;-72
2021/12/31 13:41:02;;;;;;;4.25;0.95;;;20.50;50.40;;;;;;6218270;28;20028;-72
2021/12/31 13:44:06;;;;;;;2.35;0.90;;;20.50;50.40;;;;;;6219589;28;20029;-72
2021/12/31 13:47:09;;;;;;;1.70;0.93;;;20.50;50.40;;;;;;6219461;28;20033;-72
2021/12/31 13:50:10;;;;;;;1.60;0.80;;;20.50;50.50;;;;;;6219184;28;20034;-72
2021/12/31 13:53:23;;;;;;;3.55;1.10;;;20.50;50.50;;;;;;6214727;28;20077;-72
2021/12/31 13:56:35;;;;;;;2.65;1.25;;;20.50;50.50;;;;;;6205884;28;20033;-72
2021/12/31 13:59:38;;;;;;;2.55;1.17;;;20.50;50.50;;;;;;6204735;28;20033;-72
2021/12/31 14:02:40;;;;;;;2.05;0.98;;;20.50;50.50;;;;;;6215668;28;20420;-72
2021/12/31 14:05:47;;;;;;;1.88;1.00;;;20.50;50.50;;;;;;6211937;28;20042;-72
2021/12/31 14:08:49;;;;;;;1.85;0.95;;;20.40;50.50;;;;;;6205900;28;20027;-72
2021/12/31 14:11:50;;;;;;;1.70;1.00;;;20.50;50.50;;;;;;6223873;28;20026;-72
2021/12/31 14:14:50;;;;;;;2.63;1.30;;;20.50;50.50;;;;;;6212182;28;20056;-72
2021/12/31 14:17:51;;;;;;;2.08;0.95;;;20.50;50.60;;;;;;6210432;28;20033;-72
2021/12/31 14:20:52;;;;;;;1.48;1.00;;;20.50;50.50;;;;;;6200273;28;20115;-73
2021/12/31 14:23:52;;;;;;;2.83;1.10;;;20.50;50.70;;;;;;6213368;28;20437;-73
2021/12/31 14:26:54;;;;;;;5.25;1.30;;;20.50;50.90;;;;;;6207459;28;20034;-72
2021/12/31 14:29:55;;;;;;;1.65;0.82;;;20.50;50.60;;;;;;6207588;28;20026;-72
2021/12/31 14:32:58;;;;;;;2.83;1.10;;;20.50;50.60;;;;;;6210121;28;20038;-72
2021/12/31 14:35:59;;;;;;;3.78;1.02;;;20.50;50.60;;;;;;6223070;28;20400;-73
2021/12/31 14:38:59;;;;;;;2.33;1.13;;;20.50;50.80;;;;;;6210796;28;20120;-73
2021/12/31 14:42:01;;;;;;;2.10;1.02;;;20.50;50.60;;;;;;6218677;28;20073;-73
2021/12/31 14:45:02;;;;;;;1.95;0.88;;;20.50;50.60;;;;;;6219838;28;20037;-73
2021/12/31 14:48:04;;;;;;;2.58;0.98;;;20.50;50.60;;;;;;6216170;28;20056;-73
2021/12/31 14:51:05;;;;;;;2.70;1.10;;;20.50;50.60;;;;;;6223444;28;20026;-72
2021/12/31 14:54:10;;;;;;;2.50;1.13;;;20.50;50.60;;;;;;6208019;28;20077;-72
2021/12/31 14:57:10;;;;;;;2.92;1.00;;;20.50;50.60;;;;;;6219776;28;20037;-73
2021/12/31 15:00:15;;;;;;;2.85;0.70;;;20.50;50.60;;;;;;6221463;28;20513;-72
2021/12/31 15:03:16;;;;;;;2.25;1.05;;;20.50;50.60;;;;;;6219612;28;20121;-73
2021/12/31 15:06:16;;;;;;;3.58;0.90;;;20.50;50.60;;;;;;6207075;28;20132;-73
2021/12/31 15:09:17;;;;;;;3.60;1.08;;;20.50;50.60;;;;;;6211923;28;20037;-73
2021/12/31 15:12:18;;;;;;;2.88;1.00;;;20.50;50.60;;;;;;6214636;28;20049;-74
2021/12/31 15:15:18;;;;;;;1.83;0.82;;;20.50;50.70;;;;;;6204940;28;20038;-73
2021/12/31 15:18:19;;;;;;;2.10;1.17;;;20.50;50.70;;;;;;6212590;28;20437;-72
2021/12/31 15:21:21;;;;;;;1.33;0.80;;;20.50;50.70;;;;;;6204009;28;20117;-73
2021/12/31 15:24:23;;;;;;;2.47;0.90;;;20.50;50.70;;;;;;6205052;28;20035;-73
2021/12/31 15:27:24;;;;;;;3.88;0.82;;;20.40;50.60;;;;;;6200940;28;20046;-73
2021/12/31 15:30:24;;;;;;;1.52;0.80;;;20.50;50.70;;;;;;6193206;28;20022;-72
2021/12/31 15:33:25;;;;;;;2.55;0.88;;;20.50;50.70;;;;;;6203131;28;20034;-73
2021/12/31 15:36:26;;;;;;;1.77;0.80;;;20.50;50.80;;;;;;6219336;28;20038;-73
2021/12/31 15:39:27;;;;;;;2.17;0.93;;;20.50;51.50;;;;;;6221345;28;20026;-72
2021/12/31 15:42:27;;;;;;;1.55;0.80;;;20.50;50.70;;;;;;6220046;28;20065;-73
2021/12/31 15:45:28;;;;;;;1.50;0.77;;;20.50;50.60;;;;;;6211638;28;20030;-73
2021/12/31 15:48:28;;;;;;;2.10;1.00;;;20.50;50.70;;;;;;6221856;28;20537;-74
2021/12/31 15:51:30;;;;;;;1.75;0.90;;;20.50;50.70;;;;;;6214657;28;20099;-73
2021/12/31 15:54:31;;;;;;;2.00;0.82;;;20.50;50.70;;;;;;6213616;28;20196;-73